Pikwitonei, Canada
Current Conditions -  °F | °C
As of 12:00 AM on Sunday 21 Dec 2014 (Local Time) from CYTH Reporting Station
Light Snow Light Snow  
Wind Chill:   Ceiling: 700
Heat Index: 19°   Visibility: 6mi
Dew Point: 18°   Wind: 8mph
Humidity: 93%   Direction: 190°S
Pressure: 29.79"   Gusts: NA
Location:  55.58°N, 97.15°W
Report Text: CYTH 210600Z 19007KT 170V230 6SM -SN OVC007 M07/M08 A2979 RMK ST8 SLP106
Loading
Personal Weather Stations






























Interactive Weather Map New forecast layout! Learn more

10-Day Weather Forecast

Advertisements
Track Severe Weather on mobile